sensor_id;sensor_type;location;lat;lon;timestamp;P1;durP1;ratioP1;P2;durP2;ratioP2
16514;SDS011;8370;52.556;7.970;2022-07-19T00:00:06;4.45;;;2.50;;
16514;SDS011;8370;52.556;7.970;2022-07-19T00:02:34;6.57;;;2.90;;
16514;SDS011;8370;52.556;7.970;2022-07-19T00:05:00;3.75;;;2.80;;
16514;SDS011;8370;52.556;7.970;2022-07-19T00:07:26;3.03;;;2.65;;
16514;SDS011;8370;52.556;7.970;2022-07-19T00:09:52;3.38;;;2.40;;
16514;SDS011;8370;52.556;7.970;2022-07-19T00:12:17;5.47;;;2.65;;
16514;SDS011;8370;52.556;7.970;2022-07-19T00:14:43;6.18;;;3.20;;
16514;SDS011;8370;52.556;7.970;2022-07-19T00:17:08;7.57;;;3.10;;
16514;SDS011;8370;52.556;7.970;2022-07-19T00:19:34;3.40;;;2.90;;
16514;SDS011;8370;52.556;7.970;2022-07-19T00:21:59;4.68;;;3.00;;
16514;SDS011;8370;52.556;7.970;2022-07-19T00:24:25;4.28;;;3.00;;
16514;SDS011;8370;52.556;7.970;2022-07-19T00:26:50;3.25;;;2.55;;
16514;SDS011;8370;52.556;7.970;2022-07-19T00:29:16;7.10;;;3.22;;
16514;SDS011;8370;52.556;7.970;2022-07-19T00:31:41;5.63;;;2.85;;
16514;SDS011;8370;52.556;7.970;2022-07-19T00:34:07;5.43;;;3.10;;
16514;SDS011;8370;52.556;7.970;2022-07-19T00:36:32;5.15;;;3.00;;
16514;SDS011;8370;52.556;7.970;2022-07-19T00:38:58;5.25;;;2.67;;
16514;SDS011;8370;52.556;7.970;2022-07-19T00:41:23;8.15;;;2.78;;
16514;SDS011;8370;52.556;7.970;2022-07-19T00:43:49;3.08;;;2.70;;
16514;SDS011;8370;52.556;7.970;2022-07-19T00:46:17;3.25;;;2.42;;
16514;SDS011;8370;52.556;7.970;2022-07-19T00:48:44;4.28;;;3.13;;
16514;SDS011;8370;52.556;7.970;2022-07-19T00:51:10;4.32;;;2.85;;
16514;SDS011;8370;52.556;7.970;2022-07-19T00:53:38;4.03;;;3.03;;
16514;SDS011;8370;52.556;7.970;2022-07-19T00:56:05;3.63;;;3.08;;
16514;SDS011;8370;52.556;7.970;2022-07-19T00:58:32;4.80;;;3.20;;
16514;SDS011;8370;52.556;7.970;2022-07-19T01:00:59;5.63;;;3.45;;
16514;SDS011;8370;52.556;7.970;2022-07-19T01:03:26;3.92;;;3.22;;
16514;SDS011;8370;52.556;7.970;2022-07-19T01:05:52;5.75;;;2.78;;
16514;SDS011;8370;52.556;7.970;2022-07-19T01:08:18;3.95;;;3.25;;
16514;SDS011;8370;52.556;7.970;2022-07-19T01:10:43;4.00;;;3.08;;
16514;SDS011;8370;52.556;7.970;2022-07-19T01:13:11;7.85;;;3.45;;
16514;SDS011;8370;52.556;7.970;2022-07-19T01:15:37;3.55;;;3.00;;
16514;SDS011;8370;52.556;7.970;2022-07-19T01:18:05;5.50;;;3.42;;
16514;SDS011;8370;52.556;7.970;2022-07-19T01:20:30;6.28;;;3.03;;
16514;SDS011;8370;52.556;7.970;2022-07-19T01:22:56;4.75;;;3.25;;
16514;SDS011;8370;52.556;7.970;2022-07-19T01:25:22;6.40;;;3.50;;
16514;SDS011;8370;52.556;7.970;2022-07-19T01:27:48;4.25;;;3.13;;
16514;SDS011;8370;52.556;7.970;2022-07-19T01:30:23;4.90;;;2.83;;
16514;SDS011;8370;52.556;7.970;2022-07-19T01:32:50;6.75;;;2.42;;
16514;SDS011;8370;52.556;7.970;2022-07-19T01:35:17;4.60;;;3.05;;
16514;SDS011;8370;52.556;7.970;2022-07-19T01:37:43;6.32;;;2.83;;
16514;SDS011;8370;52.556;7.970;2022-07-19T01:40:10;6.57;;;3.10;;
16514;SDS011;8370;52.556;7.970;2022-07-19T01:42:37;4.07;;;2.90;;
16514;SDS011;8370;52.556;7.970;2022-07-19T01:45:04;5.87;;;3.40;;
16514;SDS011;8370;52.556;7.970;2022-07-19T01:47:31;5.28;;;3.00;;
16514;SDS011;8370;52.556;7.970;2022-07-19T01:49:56;3.60;;;2.53;;
16514;SDS011;8370;52.556;7.970;2022-07-19T01:52:22;4.85;;;3.00;;
16514;SDS011;8370;52.556;7.970;2022-07-19T01:54:47;4.47;;;3.00;;
16514;SDS011;8370;52.556;7.970;2022-07-19T01:57:13;6.38;;;2.90;;
16514;SDS011;8370;52.556;7.970;2022-07-19T01:59:39;6.32;;;3.10;;
16514;SDS011;8370;52.556;7.970;2022-07-19T02:02:05;7.13;;;2.95;;
16514;SDS011;8370;52.556;7.970;2022-07-19T02:04:31;3.80;;;2.72;;
16514;SDS011;8370;52.556;7.970;2022-07-19T02:06:57;6.07;;;3.08;;
16514;SDS011;8370;52.556;7.970;2022-07-19T02:09:23;6.20;;;3.33;;
16514;SDS011;8370;52.556;7.970;2022-07-19T02:11:48;5.32;;;3.25;;
16514;SDS011;8370;52.556;7.970;2022-07-19T02:14:14;5.78;;;2.83;;
16514;SDS011;8370;52.556;7.970;2022-07-19T02:16:39;3.92;;;2.85;;
16514;SDS011;8370;52.556;7.970;2022-07-19T02:19:05;6.07;;;3.07;;
16514;SDS011;8370;52.556;7.970;2022-07-19T02:21:32;4.40;;;2.80;;
16514;SDS011;8370;52.556;7.970;2022-07-19T02:23:58;4.72;;;3.35;;
16514;SDS011;8370;52.556;7.970;2022-07-19T02:26:23;6.40;;;3.35;;
16514;SDS011;8370;52.556;7.970;2022-07-19T02:28:49;4.47;;;3.25;;
16514;SDS011;8370;52.556;7.970;2022-07-19T02:31:15;4.28;;;2.85;;
16514;SDS011;8370;52.556;7.970;2022-07-19T02:33:40;5.85;;;3.45;;
16514;SDS011;8370;52.556;7.970;2022-07-19T02:36:06;9.38;;;3.58;;
16514;SDS011;8370;52.556;7.970;2022-07-19T02:38:32;11.73;;;3.70;;
16514;SDS011;8370;52.556;7.970;2022-07-19T02:40:57;7.80;;;3.93;;
16514;SDS011;8370;52.556;7.970;2022-07-19T02:43:23;5.85;;;3.50;;
16514;SDS011;8370;52.556;7.970;2022-07-19T02:45:49;7.80;;;3.75;;
16514;SDS011;8370;52.556;7.970;2022-07-19T02:48:14;4.32;;;3.53;;
16514;SDS011;8370;52.556;7.970;2022-07-19T02:50:40;7.65;;;3.17;;
16514;SDS011;8370;52.556;7.970;2022-07-19T02:53:06;5.40;;;3.58;;
16514;SDS011;8370;52.556;7.970;2022-07-19T02:55:31;5.00;;;3.37;;
16514;SDS011;8370;52.556;7.970;2022-07-19T02:57:57;4.77;;;3.60;;
16514;SDS011;8370;52.556;7.970;2022-07-19T03:00:23;4.67;;;3.60;;
16514;SDS011;8370;52.556;7.970;2022-07-19T03:02:48;4.82;;;3.70;;
16514;SDS011;8370;52.556;7.970;2022-07-19T03:05:14;6.47;;;3.55;;
16514;SDS011;8370;52.556;7.970;2022-07-19T03:07:39;8.55;;;3.75;;
16514;SDS011;8370;52.556;7.970;2022-07-19T03:10:05;6.17;;;3.40;;
16514;SDS011;8370;52.556;7.970;2022-07-19T03:12:31;5.53;;;3.70;;
16514;SDS011;8370;52.556;7.970;2022-07-19T03:14:57;5.10;;;3.30;;
16514;SDS011;8370;52.556;7.970;2022-07-19T03:17:22;4.80;;;3.17;;
16514;SDS011;8370;52.556;7.970;2022-07-19T03:19:48;6.78;;;3.83;;
16514;SDS011;8370;52.556;7.970;2022-07-19T03:22:14;5.93;;;4.20;;
16514;SDS011;8370;52.556;7.970;2022-07-19T03:24:39;8.47;;;3.60;;
16514;SDS011;8370;52.556;7.970;2022-07-19T03:27:05;9.10;;;3.70;;
16514;SDS011;8370;52.556;7.970;2022-07-19T03:29:30;8.07;;;3.43;;
16514;SDS011;8370;52.556;7.970;2022-07-19T03:31:56;6.57;;;3.93;;
16514;SDS011;8370;52.556;7.970;2022-07-19T03:34:22;7.83;;;3.97;;
16514;SDS011;8370;52.556;7.970;2022-07-19T03:36:48;4.03;;;2.97;;
16514;SDS011;8370;52.556;7.970;2022-07-19T03:39:13;6.47;;;3.33;;
16514;SDS011;8370;52.556;7.970;2022-07-19T03:41:39;4.93;;;3.63;;
16514;SDS011;8370;52.556;7.970;2022-07-19T03:44:04;6.27;;;3.60;;
16514;SDS011;8370;52.556;7.970;2022-07-19T03:46:30;4.83;;;3.67;;
16514;SDS011;8370;52.556;7.970;2022-07-19T03:48:56;6.37;;;3.83;;
16514;SDS011;8370;52.556;7.970;2022-07-19T03:51:23;7.43;;;4.10;;
16514;SDS011;8370;52.556;7.970;2022-07-19T03:53:49;9.90;;;4.23;;
16514;SDS011;8370;52.556;7.970;2022-07-19T03:56:15;5.23;;;4.13;;
16514;SDS011;8370;52.556;7.970;2022-07-19T03:58:42;6.72;;;4.07;;
16514;SDS011;8370;52.556;7.970;2022-07-19T04:01:08;7.47;;;4.57;;
16514;SDS011;8370;52.556;7.970;2022-07-19T04:03:37;10.47;;;4.37;;
16514;SDS011;8370;52.556;7.970;2022-07-19T04:06:04;7.07;;;4.27;;
16514;SDS011;8370;52.556;7.970;2022-07-19T04:08:31;10.77;;;4.83;;
16514;SDS011;8370;52.556;7.970;2022-07-19T04:10:56;7.17;;;4.37;;
16514;SDS011;8370;52.556;7.970;2022-07-19T04:13:23;8.13;;;4.37;;
16514;SDS011;8370;52.556;7.970;2022-07-19T04:15:48;4.35;;;3.47;;
16514;SDS011;8370;52.556;7.970;2022-07-19T04:18:14;4.27;;;3.43;;
16514;SDS011;8370;52.556;7.970;2022-07-19T04:20:39;6.20;;;3.93;;
16514;SDS011;8370;52.556;7.970;2022-07-19T04:23:05;5.70;;;4.27;;
16514;SDS011;8370;52.556;7.970;2022-07-19T04:25:30;6.27;;;4.30;;
16514;SDS011;8370;52.556;7.970;2022-07-19T04:27:56;5.87;;;3.70;;
16514;SDS011;8370;52.556;7.970;2022-07-19T04:30:21;6.93;;;3.90;;
16514;SDS011;8370;52.556;7.970;2022-07-19T04:32:47;5.03;;;4.10;;
16514;SDS011;8370;52.556;7.970;2022-07-19T04:35:12;7.63;;;4.27;;
16514;SDS011;8370;52.556;7.970;2022-07-19T04:37:40;5.40;;;4.00;;
16514;SDS011;8370;52.556;7.970;2022-07-19T04:40:06;8.07;;;3.90;;
16514;SDS011;8370;52.556;7.970;2022-07-19T04:42:33;5.53;;;3.90;;
16514;SDS011;8370;52.556;7.970;2022-07-19T04:44:58;5.73;;;2.93;;
16514;SDS011;8370;52.556;7.970;2022-07-19T04:47:23;10.50;;;4.03;;
16514;SDS011;8370;52.556;7.970;2022-07-19T04:49:49;6.37;;;3.67;;
16514;SDS011;8370;52.556;7.970;2022-07-19T04:52:14;6.77;;;4.40;;
16514;SDS011;8370;52.556;7.970;2022-07-19T04:54:40;6.37;;;4.20;;
16514;SDS011;8370;52.556;7.970;2022-07-19T04:57:05;13.23;;;3.88;;
16514;SDS011;8370;52.556;7.970;2022-07-19T04:59:31;8.68;;;3.88;;
16514;SDS011;8370;52.556;7.970;2022-07-19T05:01:56;8.07;;;4.00;;
16514;SDS011;8370;52.556;7.970;2022-07-19T05:04:22;9.30;;;4.30;;
16514;SDS011;8370;52.556;7.970;2022-07-19T05:06:47;12.57;;;6.50;;
16514;SDS011;8370;52.556;7.970;2022-07-19T05:09:16;9.87;;;4.57;;
16514;SDS011;8370;52.556;7.970;2022-07-19T05:11:43;8.38;;;4.03;;
16514;SDS011;8370;52.556;7.970;2022-07-19T05:14:09;8.73;;;4.45;;
16514;SDS011;8370;52.556;7.970;2022-07-19T05:16:34;8.65;;;4.85;;
16514;SDS011;8370;52.556;7.970;2022-07-19T05:19:00;7.18;;;4.53;;
16514;SDS011;8370;52.556;7.970;2022-07-19T05:21:26;6.05;;;4.85;;
16514;SDS011;8370;52.556;7.970;2022-07-19T05:23:51;9.45;;;5.30;;
16514;SDS011;8370;52.556;7.970;2022-07-19T05:26:17;7.05;;;4.78;;
16514;SDS011;8370;52.556;7.970;2022-07-19T05:28:43;7.45;;;5.13;;
16514;SDS011;8370;52.556;7.970;2022-07-19T05:31:08;7.35;;;5.47;;
16514;SDS011;8370;52.556;7.970;2022-07-19T05:33:33;7.32;;;5.20;;
16514;SDS011;8370;52.556;7.970;2022-07-19T05:35:59;11.02;;;6.03;;
16514;SDS011;8370;52.556;7.970;2022-07-19T05:38:25;9.93;;;6.93;;
16514;SDS011;8370;52.556;7.970;2022-07-19T05:40:50;9.43;;;5.93;;
16514;SDS011;8370;52.556;7.970;2022-07-19T05:43:16;10.05;;;6.50;;
16514;SDS011;8370;52.556;7.970;2022-07-19T05:45:42;7.85;;;5.75;;
16514;SDS011;8370;52.556;7.970;2022-07-19T05:48:07;10.10;;;6.20;;
16514;SDS011;8370;52.556;7.970;2022-07-19T05:50:33;9.50;;;6.43;;
16514;SDS011;8370;52.556;7.970;2022-07-19T05:52:58;8.88;;;6.20;;
16514;SDS011;8370;52.556;7.970;2022-07-19T05:55:24;11.82;;;6.65;;
16514;SDS011;8370;52.556;7.970;2022-07-19T05:57:50;10.27;;;6.45;;
16514;SDS011;8370;52.556;7.970;2022-07-19T06:00:15;9.52;;;6.50;;
16514;SDS011;8370;52.556;7.970;2022-07-19T06:02:41;10.52;;;5.90;;
16514;SDS011;8370;52.556;7.970;2022-07-19T06:05:06;8.90;;;6.38;;
16514;SDS011;8370;52.556;7.970;2022-07-19T06:07:32;8.05;;;6.15;;
16514;SDS011;8370;52.556;7.970;2022-07-19T06:09:58;11.60;;;6.70;;
16514;SDS011;8370;52.556;7.970;2022-07-19T06:12:24;7.82;;;5.20;;
16514;SDS011;8370;52.556;7.970;2022-07-19T06:14:49;8.82;;;5.80;;
16514;SDS011;8370;52.556;7.970;2022-07-19T06:17:15;8.63;;;6.15;;
16514;SDS011;8370;52.556;7.970;2022-07-19T06:19:40;9.02;;;5.95;;
16514;SDS011;8370;52.556;7.970;2022-07-19T06:22:05;10.00;;;6.00;;
16514;SDS011;8370;52.556;7.970;2022-07-19T06:24:31;16.67;;;5.70;;
16514;SDS011;8370;52.556;7.970;2022-07-19T06:26:56;12.48;;;5.55;;
16514;SDS011;8370;52.556;7.970;2022-07-19T06:29:22;10.25;;;5.38;;
16514;SDS011;8370;52.556;7.970;2022-07-19T06:31:47;9.15;;;5.40;;
16514;SDS011;8370;52.556;7.970;2022-07-19T06:34:13;10.13;;;5.22;;
16514;SDS011;8370;52.556;7.970;2022-07-19T06:36:39;10.80;;;5.95;;
16514;SDS011;8370;52.556;7.970;2022-07-19T06:39:04;7.47;;;5.13;;
16514;SDS011;8370;52.556;7.970;2022-07-19T06:41:30;9.73;;;5.55;;
16514;SDS011;8370;52.556;7.970;2022-07-19T06:43:55;7.18;;;5.10;;
16514;SDS011;8370;52.556;7.970;2022-07-19T06:46:21;6.85;;;4.78;;
16514;SDS011;8370;52.556;7.970;2022-07-19T06:48:46;9.77;;;4.78;;
16514;SDS011;8370;52.556;7.970;2022-07-19T06:51:12;6.75;;;4.38;;
16514;SDS011;8370;52.556;7.970;2022-07-19T06:53:37;8.98;;;5.68;;
16514;SDS011;8370;52.556;7.970;2022-07-19T06:56:03;9.70;;;4.85;;
16514;SDS011;8370;52.556;7.970;2022-07-19T06:58:29;8.43;;;4.63;;
16514;SDS011;8370;52.556;7.970;2022-07-19T07:00:55;7.70;;;5.93;;
16514;SDS011;8370;52.556;7.970;2022-07-19T07:03:21;7.75;;;4.50;;
16514;SDS011;8370;52.556;7.970;2022-07-19T07:05:46;6.18;;;3.83;;
16514;SDS011;8370;52.556;7.970;2022-07-19T07:08:12;7.57;;;4.03;;
16514;SDS011;8370;52.556;7.970;2022-07-19T07:10:38;6.22;;;3.75;;
16514;SDS011;8370;52.556;7.970;2022-07-19T07:13:05;7.43;;;3.42;;
16514;SDS011;8370;52.556;7.970;2022-07-19T07:15:30;8.18;;;3.42;;
16514;SDS011;8370;52.556;7.970;2022-07-19T07:17:56;8.15;;;4.10;;
16514;SDS011;8370;52.556;7.970;2022-07-19T07:20:22;7.60;;;3.60;;
16514;SDS011;8370;52.556;7.970;2022-07-19T07:22:48;8.18;;;3.38;;
16514;SDS011;8370;52.556;7.970;2022-07-19T07:25:13;4.78;;;3.35;;
16514;SDS011;8370;52.556;7.970;2022-07-19T07:27:39;11.00;;;3.15;;
16514;SDS011;8370;52.556;7.970;2022-07-19T07:30:04;3.78;;;2.75;;
16514;SDS011;8370;52.556;7.970;2022-07-19T07:32:31;4.28;;;2.78;;
16514;SDS011;8370;52.556;7.970;2022-07-19T07:34:57;8.18;;;2.75;;
16514;SDS011;8370;52.556;7.970;2022-07-19T07:37:22;4.43;;;2.60;;
16514;SDS011;8370;52.556;7.970;2022-07-19T07:39:48;5.95;;;2.70;;
16514;SDS011;8370;52.556;7.970;2022-07-19T07:42:14;4.97;;;2.22;;
16514;SDS011;8370;52.556;7.970;2022-07-19T07:44:40;7.05;;;2.70;;
16514;SDS011;8370;52.556;7.970;2022-07-19T07:47:06;3.15;;;2.50;;
16514;SDS011;8370;52.556;7.970;2022-07-19T07:49:37;5.25;;;2.35;;
16514;SDS011;8370;52.556;7.970;2022-07-19T07:52:03;6.53;;;2.70;;
16514;SDS011;8370;52.556;7.970;2022-07-19T07:54:30;3.47;;;2.03;;
16514;SDS011;8370;52.556;7.970;2022-07-19T07:56:56;4.90;;;2.38;;
16514;SDS011;8370;52.556;7.970;2022-07-19T07:59:21;6.35;;;2.28;;
16514;SDS011;8370;52.556;7.970;2022-07-19T08:01:47;2.95;;;2.10;;
16514;SDS011;8370;52.556;7.970;2022-07-19T08:04:12;5.00;;;2.03;;
16514;SDS011;8370;52.556;7.970;2022-07-19T08:06:38;4.50;;;2.10;;
16514;SDS011;8370;52.556;7.970;2022-07-19T08:09:04;5.32;;;1.88;;
16514;SDS011;8370;52.556;7.970;2022-07-19T08:11:29;4.32;;;2.00;;
16514;SDS011;8370;52.556;7.970;2022-07-19T08:13:55;6.15;;;2.15;;
16514;SDS011;8370;52.556;7.970;2022-07-19T08:16:21;4.25;;;2.30;;
16514;SDS011;8370;52.556;7.970;2022-07-19T08:18:46;3.85;;;1.95;;
16514;SDS011;8370;52.556;7.970;2022-07-19T08:21:12;4.40;;;1.88;;
16514;SDS011;8370;52.556;7.970;2022-07-19T08:23:37;3.25;;;1.98;;
16514;SDS011;8370;52.556;7.970;2022-07-19T08:26:06;2.95;;;1.52;;
16514;SDS011;8370;52.556;7.970;2022-07-19T08:28:32;2.55;;;1.90;;
16514;SDS011;8370;52.556;7.970;2022-07-19T08:30:57;3.25;;;1.95;;
16514;SDS011;8370;52.556;7.970;2022-07-19T08:33:23;5.68;;;2.05;;
16514;SDS011;8370;52.556;7.970;2022-07-19T08:35:48;5.85;;;2.40;;
16514;SDS011;8370;52.556;7.970;2022-07-19T08:38:14;5.78;;;2.08;;
16514;SDS011;8370;52.556;7.970;2022-07-19T08:40:41;2.47;;;1.90;;
16514;SDS011;8370;52.556;7.970;2022-07-19T08:43:07;5.55;;;2.08;;
16514;SDS011;8370;52.556;7.970;2022-07-19T08:45:33;3.40;;;1.77;;
16514;SDS011;8370;52.556;7.970;2022-07-19T08:48:02;4.13;;;2.95;;
16514;SDS011;8370;52.556;7.970;2022-07-19T08:50:30;9.25;;;2.25;;
16514;SDS011;8370;52.556;7.970;2022-07-19T08:52:58;2.97;;;2.00;;
16514;SDS011;8370;52.556;7.970;2022-07-19T08:55:24;4.30;;;2.05;;
16514;SDS011;8370;52.556;7.970;2022-07-19T08:57:50;2.53;;;1.92;;
16514;SDS011;8370;52.556;7.970;2022-07-19T09:00:28;5.53;;;2.05;;
16514;SDS011;8370;52.556;7.970;2022-07-19T09:03:03;2.90;;;1.52;;
16514;SDS011;8370;52.556;7.970;2022-07-19T09:05:31;3.67;;;1.90;;
16514;SDS011;8370;52.556;7.970;2022-07-19T09:07:59;7.30;;;2.38;;
16514;SDS011;8370;52.556;7.970;2022-07-19T09:10:33;3.67;;;1.63;;
16514;SDS011;8370;52.556;7.970;2022-07-19T09:15:51;2.47;;;1.98;;
16514;SDS011;8370;52.556;7.970;2022-07-19T09:18:23;4.63;;;2.05;;
16514;SDS011;8370;52.556;7.970;2022-07-19T09:20:57;6.63;;;1.90;;
16514;SDS011;8370;52.556;7.970;2022-07-19T09:23:27;3.05;;;1.95;;
16514;SDS011;8370;52.556;7.970;2022-07-19T09:25:54;2.97;;;1.60;;
16514;SDS011;8370;52.556;7.970;2022-07-19T09:28:22;3.42;;;2.10;;
16514;SDS011;8370;52.556;7.970;2022-07-19T09:30:49;5.00;;;2.38;;
16514;SDS011;8370;52.556;7.970;2022-07-19T09:33:17;6.13;;;2.08;;
16514;SDS011;8370;52.556;7.970;2022-07-19T09:35:45;3.17;;;2.08;;
16514;SDS011;8370;52.556;7.970;2022-07-19T09:38:32;2.47;;;1.90;;
16514;SDS011;8370;52.556;7.970;2022-07-19T09:41:08;6.05;;;1.60;;
16514;SDS011;8370;52.556;7.970;2022-07-19T09:43:48;3.25;;;1.80;;
16514;SDS011;8370;52.556;7.970;2022-07-19T09:46:30;2.85;;;1.73;;
16514;SDS011;8370;52.556;7.970;2022-07-19T09:49:04;6.93;;;1.85;;
16514;SDS011;8370;52.556;7.970;2022-07-19T09:51:35;2.28;;;1.67;;
16514;SDS011;8370;52.556;7.970;2022-07-19T09:54:02;4.00;;;1.90;;
16514;SDS011;8370;52.556;7.970;2022-07-19T09:56:29;4.53;;;1.80;;
16514;SDS011;8370;52.556;7.970;2022-07-19T09:58:55;3.20;;;1.58;;
16514;SDS011;8370;52.556;7.970;2022-07-19T10:01:22;4.20;;;1.70;;
16514;SDS011;8370;52.556;7.970;2022-07-19T10:03:48;3.83;;;1.80;;
16514;SDS011;8370;52.556;7.970;2022-07-19T10:06:15;3.83;;;1.73;;
16514;SDS011;8370;52.556;7.970;2022-07-19T10:08:42;4.18;;;2.03;;
16514;SDS011;8370;52.556;7.970;2022-07-19T10:11:07;4.10;;;1.77;;
16514;SDS011;8370;52.556;7.970;2022-07-19T10:13:33;3.90;;;1.50;;
16514;SDS011;8370;52.556;7.970;2022-07-19T10:15:59;6.15;;;2.05;;
16514;SDS011;8370;52.556;7.970;2022-07-19T10:18:30;3.25;;;1.77;;
16514;SDS011;8370;52.556;7.970;2022-07-19T10:21:02;3.20;;;1.80;;
16514;SDS011;8370;52.556;7.970;2022-07-19T10:23:28;3.20;;;1.70;;
16514;SDS011;8370;52.556;7.970;2022-07-19T10:25:54;2.97;;;1.70;;
16514;SDS011;8370;52.556;7.970;2022-07-19T10:28:30;3.72;;;1.73;;
16514;SDS011;8370;52.556;7.970;2022-07-19T10:31:00;1.98;;;1.77;;
16514;SDS011;8370;52.556;7.970;2022-07-19T10:33:33;4.70;;;1.80;;
16514;SDS011;8370;52.556;7.970;2022-07-19T10:36:46;2.28;;;1.60;;
16514;SDS011;8370;52.556;7.970;2022-07-19T10:42:05;4.57;;;1.70;;
16514;SDS011;8370;52.556;7.970;2022-07-19T10:44:36;3.28;;;1.67;;
16514;SDS011;8370;52.556;7.970;2022-07-19T10:50:02;1.92;;;1.73;;
16514;SDS011;8370;52.556;7.970;2022-07-19T11:00:32;4.45;;;1.60;;
16514;SDS011;8370;52.556;7.970;2022-07-19T11:05:48;4.70;;;2.08;;
16514;SDS011;8370;52.556;7.970;2022-07-19T11:08:15;2.20;;;1.58;;
16514;SDS011;8370;52.556;7.970;2022-07-19T11:10:41;2.45;;;1.90;;
16514;SDS011;8370;52.556;7.970;2022-07-19T11:13:07;2.22;;;1.52;;
16514;SDS011;8370;52.556;7.970;2022-07-19T11:15:33;1.92;;;1.70;;
16514;SDS011;8370;52.556;7.970;2022-07-19T11:18:00;2.75;;;1.92;;
16514;SDS011;8370;52.556;7.970;2022-07-19T11:20:28;1.73;;;1.63;;
16514;SDS011;8370;52.556;7.970;2022-07-19T11:22:56;2.20;;;1.67;;
16514;SDS011;8370;52.556;7.970;2022-07-19T11:25:23;5.25;;;1.80;;
16514;SDS011;8370;52.556;7.970;2022-07-19T11:27:57;2.80;;;1.70;;
16514;SDS011;8370;52.556;7.970;2022-07-19T11:30:24;4.35;;;1.73;;
16514;SDS011;8370;52.556;7.970;2022-07-19T11:32:55;1.73;;;1.42;;
16514;SDS011;8370;52.556;7.970;2022-07-19T11:35:23;4.15;;;1.50;;
16514;SDS011;8370;52.556;7.970;2022-07-19T11:37:51;2.63;;;1.50;;
16514;SDS011;8370;52.556;7.970;2022-07-19T11:40:18;2.75;;;1.60;;
16514;SDS011;8370;52.556;7.970;2022-07-19T11:42:45;3.97;;;1.88;;
16514;SDS011;8370;52.556;7.970;2022-07-19T11:45:15;2.60;;;1.55;;
16514;SDS011;8370;52.556;7.970;2022-07-19T11:47:52;3.72;;;1.65;;
16514;SDS011;8370;52.556;7.970;2022-07-19T11:50:20;7.40;;;1.83;;
16514;SDS011;8370;52.556;7.970;2022-07-19T11:52:51;3.35;;;1.45;;
16514;SDS011;8370;52.556;7.970;2022-07-19T11:55:19;4.38;;;1.77;;
16514;SDS011;8370;52.556;7.970;2022-07-19T11:57:46;1.80;;;1.63;;
16514;SDS011;8370;52.556;7.970;2022-07-19T12:00:13;3.15;;;1.67;;
16514;SDS011;8370;52.556;7.970;2022-07-19T12:05:37;1.83;;;1.50;;
16514;SDS011;8370;52.556;7.970;2022-07-19T12:08:07;4.40;;;1.30;;
16514;SDS011;8370;52.556;7.970;2022-07-19T12:13:08;4.03;;;2.65;;
16514;SDS011;8370;52.556;7.970;2022-07-19T12:18:09;5.65;;;1.42;;
16514;SDS011;8370;52.556;7.970;2022-07-19T12:20:34;2.10;;;1.40;;
16514;SDS011;8370;52.556;7.970;2022-07-19T12:23:16;3.10;;;1.38;;
16514;SDS011;8370;52.556;7.970;2022-07-19T12:25:48;2.88;;;1.27;;
16514;SDS011;8370;52.556;7.970;2022-07-19T12:28:14;2.55;;;1.20;;
16514;SDS011;8370;52.556;7.970;2022-07-19T12:30:39;3.05;;;1.45;;
16514;SDS011;8370;52.556;7.970;2022-07-19T12:33:06;4.75;;;1.88;;
16514;SDS011;8370;52.556;7.970;2022-07-19T12:35:46;1.98;;;1.65;;
16514;SDS011;8370;52.556;7.970;2022-07-19T12:38:13;3.05;;;1.70;;
16514;SDS011;8370;52.556;7.970;2022-07-19T12:40:42;5.38;;;2.90;;
16514;SDS011;8370;52.556;7.970;2022-07-19T12:43:09;2.47;;;1.98;;
16514;SDS011;8370;52.556;7.970;2022-07-19T12:45:40;3.80;;;1.90;;
16514;SDS011;8370;52.556;7.970;2022-07-19T12:48:09;2.88;;;2.13;;
16514;SDS011;8370;52.556;7.970;2022-07-19T12:50:38;2.85;;;2.08;;
16514;SDS011;8370;52.556;7.970;2022-07-19T12:53:10;3.45;;;2.05;;
16514;SDS011;8370;52.556;7.970;2022-07-19T12:55:38;4.78;;;2.20;;
16514;SDS011;8370;52.556;7.970;2022-07-19T12:58:06;2.30;;;2.10;;
16514;SDS011;8370;52.556;7.970;2022-07-19T13:00:33;2.42;;;2.20;;
16514;SDS011;8370;52.556;7.970;2022-07-19T13:03:00;4.65;;;2.20;;
16514;SDS011;8370;52.556;7.970;2022-07-19T13:05:27;4.60;;;2.20;;
16514;SDS011;8370;52.556;7.970;2022-07-19T13:07:54;4.13;;;2.40;;
16514;SDS011;8370;52.556;7.970;2022-07-19T13:10:20;3.78;;;2.22;;
16514;SDS011;8370;52.556;7.970;2022-07-19T13:12:46;2.53;;;2.30;;
16514;SDS011;8370;52.556;7.970;2022-07-19T13:15:12;2.80;;;2.42;;
16514;SDS011;8370;52.556;7.970;2022-07-19T13:17:39;2.35;;;2.15;;
16514;SDS011;8370;52.556;7.970;2022-07-19T13:20:05;2.72;;;2.05;;
16514;SDS011;8370;52.556;7.970;2022-07-19T13:22:33;3.90;;;2.25;;
16514;SDS011;8370;52.556;7.970;2022-07-19T13:24:59;2.70;;;1.90;;
16514;SDS011;8370;52.556;7.970;2022-07-19T13:27:24;2.60;;;1.60;;
16514;SDS011;8370;52.556;7.970;2022-07-19T13:29:50;4.30;;;1.83;;
16514;SDS011;8370;52.556;7.970;2022-07-19T13:32:16;2.95;;;1.60;;
16514;SDS011;8370;52.556;7.970;2022-07-19T13:34:41;2.15;;;1.45;;
16514;SDS011;8370;52.556;7.970;2022-07-19T13:37:07;2.53;;;1.20;;
16514;SDS011;8370;52.556;7.970;2022-07-19T13:39:32;1.58;;;1.30;;
16514;SDS011;8370;52.556;7.970;2022-07-19T13:41:58;3.78;;;1.30;;
16514;SDS011;8370;52.556;7.970;2022-07-19T13:44:24;2.30;;;1.60;;
16514;SDS011;8370;52.556;7.970;2022-07-19T13:46:50;4.95;;;1.98;;
16514;SDS011;8370;52.556;7.970;2022-07-19T13:49:16;2.20;;;1.98;;
16514;SDS011;8370;52.556;7.970;2022-07-19T13:51:41;4.55;;;1.65;;
16514;SDS011;8370;52.556;7.970;2022-07-19T13:54:07;6.45;;;1.85;;
16514;SDS011;8370;52.556;7.970;2022-07-19T13:56:34;3.60;;;1.77;;
16514;SDS011;8370;52.556;7.970;2022-07-19T13:58:59;4.43;;;1.65;;
16514;SDS011;8370;52.556;7.970;2022-07-19T14:01:25;2.17;;;1.50;;
16514;SDS011;8370;52.556;7.970;2022-07-19T14:03:52;2.67;;;1.40;;
16514;SDS011;8370;52.556;7.970;2022-07-19T14:06:18;1.83;;;1.73;;
16514;SDS011;8370;52.556;7.970;2022-07-19T14:08:44;2.45;;;1.33;;
16514;SDS011;8370;52.556;7.970;2022-07-19T14:11:09;3.30;;;1.50;;
16514;SDS011;8370;52.556;7.970;2022-07-19T14:13:35;1.92;;;1.73;;
16514;SDS011;8370;52.556;7.970;2022-07-19T14:16:01;2.17;;;1.40;;
16514;SDS011;8370;52.556;7.970;2022-07-19T14:18:28;2.67;;;1.52;;
16514;SDS011;8370;52.556;7.970;2022-07-19T14:20:54;1.65;;;1.40;;
16514;SDS011;8370;52.556;7.970;2022-07-19T14:23:20;4.60;;;1.52;;
16514;SDS011;8370;52.556;7.970;2022-07-19T14:25:46;1.92;;;1.50;;
16514;SDS011;8370;52.556;7.970;2022-07-19T14:28:12;3.30;;;1.48;;
16514;SDS011;8370;52.556;7.970;2022-07-19T14:30:38;4.03;;;1.85;;
16514;SDS011;8370;52.556;7.970;2022-07-19T14:33:04;6.35;;;1.80;;
16514;SDS011;8370;52.556;7.970;2022-07-19T14:35:29;4.20;;;2.13;;
16514;SDS011;8370;52.556;7.970;2022-07-19T14:37:55;6.60;;;1.90;;
16514;SDS011;8370;52.556;7.970;2022-07-19T14:40:21;3.05;;;1.25;;
16514;SDS011;8370;52.556;7.970;2022-07-19T14:42:47;2.65;;;1.70;;
16514;SDS011;8370;52.556;7.970;2022-07-19T14:45:12;2.47;;;1.80;;
16514;SDS011;8370;52.556;7.970;2022-07-19T14:47:38;11.07;;;1.90;;
16514;SDS011;8370;52.556;7.970;2022-07-19T14:50:05;4.85;;;1.92;;
16514;SDS011;8370;52.556;7.970;2022-07-19T14:52:33;1.75;;;1.60;;
16514;SDS011;8370;52.556;7.970;2022-07-19T14:54:58;3.38;;;2.03;;
16514;SDS011;8370;52.556;7.970;2022-07-19T14:57:24;1.58;;;1.48;;
16514;SDS011;8370;52.556;7.970;2022-07-19T14:59:49;4.55;;;1.90;;
16514;SDS011;8370;52.556;7.970;2022-07-19T15:02:15;2.80;;;1.90;;
16514;SDS011;8370;52.556;7.970;2022-07-19T15:04:41;2.33;;;1.70;;
16514;SDS011;8370;52.556;7.970;2022-07-19T15:07:07;3.38;;;1.70;;
16514;SDS011;8370;52.556;7.970;2022-07-19T15:09:32;2.92;;;1.80;;
16514;SDS011;8370;52.556;7.970;2022-07-19T15:11:59;3.72;;;2.00;;
16514;SDS011;8370;52.556;7.970;2022-07-19T15:14:28;2.85;;;1.95;;
16514;SDS011;8370;52.556;7.970;2022-07-19T15:16:57;3.75;;;1.92;;
16514;SDS011;8370;52.556;7.970;2022-07-19T15:19:23;3.05;;;1.60;;
16514;SDS011;8370;52.556;7.970;2022-07-19T15:21:49;4.90;;;1.90;;
16514;SDS011;8370;52.556;7.970;2022-07-19T15:24:16;3.80;;;1.80;;